Terminal Aerodrome Forecast
Issued by NWS Louisville, KY

Home | Current Version | Previous Version | Text Only | Print | Product List | Glossary On
Versions: 1 2 3 4 5 6 7 8 9 10 11 12 13 14 15 16 17 18
000
FTUS43 KLMK 192320
TAFLEX
TAF
KLEX 192320Z 2000/2024 20004KT P6SM SCT025 BKN100
     FM200700 VRB03KT 4SM BR SCT030
     FM200900 VRB03KT 2SM BR SCT030
      TEMPO 2009/2012 1/2SM FG SCT004
     FM201400 VRB03KT P6SM FEW030 SCT040=

USA.gov is the U.S. government's official web portal to all federal, state and local government web resources and services.